sensor_id;sensor_type;location;lat;lon;timestamp;P1;durP1;ratioP1;P2;durP2;ratioP2
46116;SDS011;32591;48.102;11.772;2022-08-01T00:01:49;2.65;;;2.17;;
46116;SDS011;32591;48.102;11.772;2022-08-01T00:04:16;2.95;;;2.33;;
46116;SDS011;32591;48.102;11.772;2022-08-01T00:06:43;3.00;;;2.70;;
46116;SDS011;32591;48.102;11.772;2022-08-01T00:09:10;3.03;;;2.50;;
46116;SDS011;32591;48.102;11.772;2022-08-01T00:11:37;2.63;;;2.30;;
46116;SDS011;32591;48.102;11.772;2022-08-01T00:14:05;4.65;;;2.30;;
46116;SDS011;32591;48.102;11.772;2022-08-01T00:16:34;2.85;;;2.30;;
46116;SDS011;32591;48.102;11.772;2022-08-01T00:19:01;3.35;;;2.25;;
46116;SDS011;32591;48.102;11.772;2022-08-01T00:21:28;3.60;;;2.35;;
46116;SDS011;32591;48.102;11.772;2022-08-01T00:23:55;2.83;;;2.17;;
46116;SDS011;32591;48.102;11.772;2022-08-01T00:26:22;3.97;;;2.28;;
46116;SDS011;32591;48.102;11.772;2022-08-01T00:28:49;2.28;;;1.98;;
46116;SDS011;32591;48.102;11.772;2022-08-01T00:31:17;4.25;;;2.55;;
46116;SDS011;32591;48.102;11.772;2022-08-01T00:33:44;3.50;;;2.17;;
46116;SDS011;32591;48.102;11.772;2022-08-01T00:36:10;2.72;;;2.20;;
46116;SDS011;32591;48.102;11.772;2022-08-01T00:38:37;4.85;;;2.67;;
46116;SDS011;32591;48.102;11.772;2022-08-01T00:41:04;3.30;;;2.55;;
46116;SDS011;32591;48.102;11.772;2022-08-01T00:43:31;4.40;;;2.50;;
46116;SDS011;32591;48.102;11.772;2022-08-01T00:45:58;3.45;;;2.40;;
46116;SDS011;32591;48.102;11.772;2022-08-01T00:48:26;3.08;;;2.42;;
46116;SDS011;32591;48.102;11.772;2022-08-01T00:50:53;3.00;;;2.40;;
46116;SDS011;32591;48.102;11.772;2022-08-01T00:53:20;3.22;;;2.60;;
46116;SDS011;32591;48.102;11.772;2022-08-01T00:55:47;2.97;;;2.22;;
46116;SDS011;32591;48.102;11.772;2022-08-01T00:58:14;3.30;;;2.40;;
46116;SDS011;32591;48.102;11.772;2022-08-01T01:00:41;2.95;;;2.20;;
46116;SDS011;32591;48.102;11.772;2022-08-01T01:03:08;3.33;;;2.30;;
46116;SDS011;32591;48.102;11.772;2022-08-01T01:05:45;3.40;;;2.65;;
46116;SDS011;32591;48.102;11.772;2022-08-01T01:08:27;2.60;;;2.15;;
46116;SDS011;32591;48.102;11.772;2022-08-01T01:11:03;2.70;;;2.33;;
46116;SDS011;32591;48.102;11.772;2022-08-01T01:13:37;3.72;;;2.33;;
46116;SDS011;32591;48.102;11.772;2022-08-01T01:16:10;3.78;;;2.88;;
46116;SDS011;32591;48.102;11.772;2022-08-01T01:18:43;2.60;;;2.40;;
46116;SDS011;32591;48.102;11.772;2022-08-01T01:21:30;3.13;;;2.65;;
46116;SDS011;32591;48.102;11.772;2022-08-01T01:24:13;2.42;;;2.17;;
46116;SDS011;32591;48.102;11.772;2022-08-01T01:26:50;3.20;;;2.72;;
46116;SDS011;32591;48.102;11.772;2022-08-01T01:29:25;3.08;;;2.35;;
46116;SDS011;32591;48.102;11.772;2022-08-01T01:31:57;3.20;;;2.28;;
46116;SDS011;32591;48.102;11.772;2022-08-01T01:34:32;5.32;;;2.40;;
46116;SDS011;32591;48.102;11.772;2022-08-01T01:37:04;3.53;;;2.70;;
46116;SDS011;32591;48.102;11.772;2022-08-01T01:39:36;3.67;;;2.65;;
46116;SDS011;32591;48.102;11.772;2022-08-01T01:42:04;2.50;;;2.30;;
46116;SDS011;32591;48.102;11.772;2022-08-01T01:44:34;2.80;;;2.45;;
46116;SDS011;32591;48.102;11.772;2022-08-01T01:47:03;5.43;;;2.80;;
46116;SDS011;32591;48.102;11.772;2022-08-01T01:49:31;3.03;;;2.22;;
46116;SDS011;32591;48.102;11.772;2022-08-01T01:52:00;2.40;;;2.20;;
46116;SDS011;32591;48.102;11.772;2022-08-01T01:54:30;3.10;;;2.63;;
46116;SDS011;32591;48.102;11.772;2022-08-01T01:57:03;3.63;;;2.28;;
46116;SDS011;32591;48.102;11.772;2022-08-01T01:59:34;3.95;;;2.45;;
46116;SDS011;32591;48.102;11.772;2022-08-01T02:02:04;2.80;;;2.47;;
46116;SDS011;32591;48.102;11.772;2022-08-01T02:04:33;3.55;;;2.53;;
46116;SDS011;32591;48.102;11.772;2022-08-01T02:07:02;3.03;;;2.50;;
46116;SDS011;32591;48.102;11.772;2022-08-01T02:09:30;3.30;;;2.55;;
46116;SDS011;32591;48.102;11.772;2022-08-01T02:11:58;3.38;;;2.22;;
46116;SDS011;32591;48.102;11.772;2022-08-01T02:14:27;5.70;;;2.65;;
46116;SDS011;32591;48.102;11.772;2022-08-01T02:16:57;3.85;;;2.53;;
46116;SDS011;32591;48.102;11.772;2022-08-01T02:19:28;4.25;;;2.38;;
46116;SDS011;32591;48.102;11.772;2022-08-01T02:21:57;3.45;;;2.17;;
46116;SDS011;32591;48.102;11.772;2022-08-01T02:24:28;2.75;;;2.13;;
46116;SDS011;32591;48.102;11.772;2022-08-01T02:27:07;2.65;;;2.45;;
46116;SDS011;32591;48.102;11.772;2022-08-01T02:29:39;3.63;;;2.80;;
46116;SDS011;32591;48.102;11.772;2022-08-01T02:32:16;3.13;;;2.40;;
46116;SDS011;32591;48.102;11.772;2022-08-01T02:34:49;4.32;;;2.30;;
46116;SDS011;32591;48.102;11.772;2022-08-01T02:37:18;2.63;;;2.20;;
46116;SDS011;32591;48.102;11.772;2022-08-01T02:39:46;5.00;;;2.30;;
46116;SDS011;32591;48.102;11.772;2022-08-01T02:42:17;3.22;;;2.40;;
46116;SDS011;32591;48.102;11.772;2022-08-01T02:44:45;7.30;;;2.40;;
46116;SDS011;32591;48.102;11.772;2022-08-01T02:47:15;5.18;;;2.78;;
46116;SDS011;32591;48.102;11.772;2022-08-01T02:49:46;3.15;;;2.30;;
46116;SDS011;32591;48.102;11.772;2022-08-01T02:52:16;2.97;;;2.40;;
46116;SDS011;32591;48.102;11.772;2022-08-01T02:54:45;3.97;;;2.63;;
46116;SDS011;32591;48.102;11.772;2022-08-01T02:57:16;5.07;;;2.67;;
46116;SDS011;32591;48.102;11.772;2022-08-01T02:59:46;4.20;;;2.45;;
46116;SDS011;32591;48.102;11.772;2022-08-01T03:02:17;4.10;;;2.50;;
46116;SDS011;32591;48.102;11.772;2022-08-01T03:04:45;3.38;;;2.45;;
46116;SDS011;32591;48.102;11.772;2022-08-01T03:07:15;3.58;;;2.13;;
46116;SDS011;32591;48.102;11.772;2022-08-01T03:09:43;3.03;;;2.67;;
46116;SDS011;32591;48.102;11.772;2022-08-01T03:12:13;3.08;;;2.40;;
46116;SDS011;32591;48.102;11.772;2022-08-01T03:14:44;4.65;;;2.55;;
46116;SDS011;32591;48.102;11.772;2022-08-01T03:17:14;3.53;;;2.40;;
46116;SDS011;32591;48.102;11.772;2022-08-01T03:19:44;5.15;;;2.75;;
46116;SDS011;32591;48.102;11.772;2022-08-01T03:22:12;3.70;;;2.50;;
46116;SDS011;32591;48.102;11.772;2022-08-01T03:24:41;3.13;;;2.33;;
46116;SDS011;32591;48.102;11.772;2022-08-01T03:27:10;5.57;;;2.40;;
46116;SDS011;32591;48.102;11.772;2022-08-01T03:29:38;3.00;;;2.00;;
46116;SDS011;32591;48.102;11.772;2022-08-01T03:32:07;5.20;;;2.55;;
46116;SDS011;32591;48.102;11.772;2022-08-01T03:34:38;3.58;;;2.20;;
46116;SDS011;32591;48.102;11.772;2022-08-01T03:37:05;2.97;;;2.40;;
46116;SDS011;32591;48.102;11.772;2022-08-01T03:39:40;4.25;;;2.65;;
46116;SDS011;32591;48.102;11.772;2022-08-01T03:42:14;3.17;;;2.30;;
46116;SDS011;32591;48.102;11.772;2022-08-01T03:44:47;3.55;;;2.20;;
46116;SDS011;32591;48.102;11.772;2022-08-01T03:47:20;3.08;;;2.50;;
46116;SDS011;32591;48.102;11.772;2022-08-01T03:49:54;4.35;;;2.60;;
46116;SDS011;32591;48.102;11.772;2022-08-01T03:52:22;6.63;;;3.47;;
46116;SDS011;32591;48.102;11.772;2022-08-01T03:54:52;3.33;;;2.70;;
46116;SDS011;32591;48.102;11.772;2022-08-01T03:57:21;3.05;;;2.33;;
46116;SDS011;32591;48.102;11.772;2022-08-01T03:59:50;3.80;;;2.25;;
46116;SDS011;32591;48.102;11.772;2022-08-01T04:02:18;3.13;;;2.47;;
46116;SDS011;32591;48.102;11.772;2022-08-01T04:04:47;2.58;;;2.25;;
46116;SDS011;32591;48.102;11.772;2022-08-01T04:07:25;3.20;;;2.40;;
46116;SDS011;32591;48.102;11.772;2022-08-01T04:09:56;3.63;;;2.70;;
46116;SDS011;32591;48.102;11.772;2022-08-01T04:12:23;3.92;;;2.55;;
46116;SDS011;32591;48.102;11.772;2022-08-01T04:14:50;4.70;;;2.15;;
46116;SDS011;32591;48.102;11.772;2022-08-01T04:17:17;4.15;;;2.42;;
46116;SDS011;32591;48.102;11.772;2022-08-01T04:19:44;5.28;;;2.55;;
46116;SDS011;32591;48.102;11.772;2022-08-01T04:22:12;3.05;;;2.55;;
46116;SDS011;32591;48.102;11.772;2022-08-01T04:24:44;3.78;;;2.50;;
46116;SDS011;32591;48.102;11.772;2022-08-01T04:27:16;3.50;;;2.50;;
46116;SDS011;32591;48.102;11.772;2022-08-01T04:29:49;3.60;;;2.55;;
46116;SDS011;32591;48.102;11.772;2022-08-01T04:32:20;4.30;;;2.45;;
46116;SDS011;32591;48.102;11.772;2022-08-01T04:34:48;3.42;;;2.70;;
46116;SDS011;32591;48.102;11.772;2022-08-01T04:37:16;3.15;;;2.05;;
46116;SDS011;32591;48.102;11.772;2022-08-01T04:39:46;3.60;;;2.55;;
46116;SDS011;32591;48.102;11.772;2022-08-01T04:42:14;7.65;;;4.13;;
46116;SDS011;32591;48.102;11.772;2022-08-01T04:44:41;5.85;;;2.50;;
46116;SDS011;32591;48.102;11.772;2022-08-01T04:47:08;4.07;;;2.72;;
46116;SDS011;32591;48.102;11.772;2022-08-01T04:49:36;3.88;;;2.75;;
46116;SDS011;32591;48.102;11.772;2022-08-01T04:52:04;4.35;;;2.38;;
46116;SDS011;32591;48.102;11.772;2022-08-01T04:54:32;4.63;;;2.50;;
46116;SDS011;32591;48.102;11.772;2022-08-01T04:57:03;4.13;;;2.53;;
46116;SDS011;32591;48.102;11.772;2022-08-01T04:59:31;3.28;;;2.67;;
46116;SDS011;32591;48.102;11.772;2022-08-01T05:02:05;4.78;;;2.20;;
46116;SDS011;32591;48.102;11.772;2022-08-01T05:04:33;4.25;;;3.10;;
46116;SDS011;32591;48.102;11.772;2022-08-01T05:07:00;2.95;;;2.65;;
46116;SDS011;32591;48.102;11.772;2022-08-01T05:09:27;4.07;;;2.65;;
46116;SDS011;32591;48.102;11.772;2022-08-01T05:11:55;3.72;;;2.67;;
46116;SDS011;32591;48.102;11.772;2022-08-01T05:14:24;3.35;;;2.83;;
46116;SDS011;32591;48.102;11.772;2022-08-01T05:16:52;2.92;;;2.20;;
46116;SDS011;32591;48.102;11.772;2022-08-01T05:19:19;4.15;;;2.60;;
46116;SDS011;32591;48.102;11.772;2022-08-01T05:21:47;5.95;;;2.97;;
46116;SDS011;32591;48.102;11.772;2022-08-01T05:24:14;3.25;;;2.10;;
46116;SDS011;32591;48.102;11.772;2022-08-01T05:26:41;2.92;;;2.20;;
46116;SDS011;32591;48.102;11.772;2022-08-01T05:29:07;3.30;;;2.75;;
46116;SDS011;32591;48.102;11.772;2022-08-01T05:31:36;4.50;;;2.45;;
46116;SDS011;32591;48.102;11.772;2022-08-01T05:34:03;3.83;;;2.45;;
46116;SDS011;32591;48.102;11.772;2022-08-01T05:36:30;4.75;;;2.60;;
46116;SDS011;32591;48.102;11.772;2022-08-01T05:38:57;2.95;;;2.60;;
46116;SDS011;32591;48.102;11.772;2022-08-01T05:41:23;3.33;;;2.30;;
46116;SDS011;32591;48.102;11.772;2022-08-01T05:43:51;2.92;;;2.40;;
46116;SDS011;32591;48.102;11.772;2022-08-01T05:46:18;4.32;;;2.67;;
46116;SDS011;32591;48.102;11.772;2022-08-01T05:48:46;3.10;;;2.33;;
46116;SDS011;32591;48.102;11.772;2022-08-01T05:51:13;4.00;;;2.45;;
46116;SDS011;32591;48.102;11.772;2022-08-01T05:53:40;3.55;;;2.63;;
46116;SDS011;32591;48.102;11.772;2022-08-01T05:56:07;4.43;;;2.92;;
46116;SDS011;32591;48.102;11.772;2022-08-01T05:58:34;3.45;;;2.40;;
46116;SDS011;32591;48.102;11.772;2022-08-01T06:01:01;4.75;;;2.42;;
46116;SDS011;32591;48.102;11.772;2022-08-01T06:03:28;3.10;;;2.35;;
46116;SDS011;32591;48.102;11.772;2022-08-01T06:05:57;4.13;;;2.45;;
46116;SDS011;32591;48.102;11.772;2022-08-01T06:08:24;3.35;;;2.38;;
46116;SDS011;32591;48.102;11.772;2022-08-01T06:10:52;2.78;;;2.15;;
46116;SDS011;32591;48.102;11.772;2022-08-01T06:13:19;3.85;;;2.30;;
46116;SDS011;32591;48.102;11.772;2022-08-01T06:15:47;6.93;;;3.03;;
46116;SDS011;32591;48.102;11.772;2022-08-01T06:18:14;3.42;;;2.55;;
46116;SDS011;32591;48.102;11.772;2022-08-01T06:20:41;3.65;;;2.45;;
46116;SDS011;32591;48.102;11.772;2022-08-01T06:23:10;3.95;;;2.80;;
46116;SDS011;32591;48.102;11.772;2022-08-01T06:25:37;4.70;;;2.55;;
46116;SDS011;32591;48.102;11.772;2022-08-01T06:28:04;3.72;;;2.20;;
46116;SDS011;32591;48.102;11.772;2022-08-01T06:30:31;5.75;;;2.65;;
46116;SDS011;32591;48.102;11.772;2022-08-01T06:32:57;4.38;;;2.42;;
46116;SDS011;32591;48.102;11.772;2022-08-01T06:35:25;4.57;;;2.35;;
46116;SDS011;32591;48.102;11.772;2022-08-01T06:37:53;6.13;;;2.75;;
46116;SDS011;32591;48.102;11.772;2022-08-01T06:40:21;5.90;;;2.83;;
46116;SDS011;32591;48.102;11.772;2022-08-01T06:42:48;4.63;;;2.58;;
46116;SDS011;32591;48.102;11.772;2022-08-01T06:45:15;3.85;;;2.55;;
46116;SDS011;32591;48.102;11.772;2022-08-01T06:47:43;4.35;;;2.83;;
46116;SDS011;32591;48.102;11.772;2022-08-01T06:50:11;3.10;;;2.33;;
46116;SDS011;32591;48.102;11.772;2022-08-01T06:52:39;3.78;;;2.38;;
46116;SDS011;32591;48.102;11.772;2022-08-01T06:55:07;5.90;;;2.53;;
46116;SDS011;32591;48.102;11.772;2022-08-01T06:57:42;5.05;;;3.03;;
46116;SDS011;32591;48.102;11.772;2022-08-01T07:00:12;3.75;;;2.60;;
46116;SDS011;32591;48.102;11.772;2022-08-01T07:02:41;3.15;;;2.58;;
46116;SDS011;32591;48.102;11.772;2022-08-01T07:05:09;4.88;;;2.80;;
46116;SDS011;32591;48.102;11.772;2022-08-01T07:07:36;4.03;;;2.50;;
46116;SDS011;32591;48.102;11.772;2022-08-01T07:10:03;3.80;;;2.92;;
46116;SDS011;32591;48.102;11.772;2022-08-01T07:12:31;4.20;;;2.50;;
46116;SDS011;32591;48.102;11.772;2022-08-01T07:15:00;3.05;;;2.50;;
46116;SDS011;32591;48.102;11.772;2022-08-01T07:17:27;4.50;;;2.97;;
46116;SDS011;32591;48.102;11.772;2022-08-01T07:19:54;4.97;;;3.03;;
46116;SDS011;32591;48.102;11.772;2022-08-01T07:22:21;3.28;;;2.30;;
46116;SDS011;32591;48.102;11.772;2022-08-01T07:24:48;7.18;;;2.55;;
46116;SDS011;32591;48.102;11.772;2022-08-01T07:27:15;3.03;;;2.40;;
46116;SDS011;32591;48.102;11.772;2022-08-01T07:29:42;4.53;;;2.90;;
46116;SDS011;32591;48.102;11.772;2022-08-01T07:32:10;3.20;;;2.45;;
46116;SDS011;32591;48.102;11.772;2022-08-01T07:34:37;5.38;;;2.63;;
46116;SDS011;32591;48.102;11.772;2022-08-01T07:37:04;5.00;;;3.05;;
46116;SDS011;32591;48.102;11.772;2022-08-01T07:39:31;5.22;;;2.65;;
46116;SDS011;32591;48.102;11.772;2022-08-01T07:41:58;6.35;;;3.47;;
46116;SDS011;32591;48.102;11.772;2022-08-01T07:44:25;4.00;;;2.67;;
46116;SDS011;32591;48.102;11.772;2022-08-01T07:46:52;6.25;;;2.92;;
46116;SDS011;32591;48.102;11.772;2022-08-01T07:49:20;5.03;;;2.83;;
46116;SDS011;32591;48.102;11.772;2022-08-01T07:51:47;5.25;;;3.00;;
46116;SDS011;32591;48.102;11.772;2022-08-01T07:54:14;3.95;;;3.25;;
46116;SDS011;32591;48.102;11.772;2022-08-01T07:56:41;4.55;;;2.78;;
46116;SDS011;32591;48.102;11.772;2022-08-01T07:59:08;3.83;;;2.55;;
46116;SDS011;32591;48.102;11.772;2022-08-01T08:01:35;3.83;;;2.78;;
46116;SDS011;32591;48.102;11.772;2022-08-01T08:04:02;3.67;;;2.85;;
46116;SDS011;32591;48.102;11.772;2022-08-01T08:06:30;5.22;;;2.70;;
46116;SDS011;32591;48.102;11.772;2022-08-01T08:08:57;3.60;;;2.88;;
46116;SDS011;32591;48.102;11.772;2022-08-01T08:11:24;3.58;;;2.88;;
46116;SDS011;32591;48.102;11.772;2022-08-01T08:13:51;3.70;;;2.90;;
46116;SDS011;32591;48.102;11.772;2022-08-01T08:16:18;5.55;;;3.22;;
46116;SDS011;32591;48.102;11.772;2022-08-01T08:18:46;4.05;;;2.72;;
46116;SDS011;32591;48.102;11.772;2022-08-01T08:21:12;6.72;;;3.00;;
46116;SDS011;32591;48.102;11.772;2022-08-01T08:23:41;3.25;;;2.95;;
46116;SDS011;32591;48.102;11.772;2022-08-01T08:26:25;4.25;;;2.70;;
46116;SDS011;32591;48.102;11.772;2022-08-01T08:28:52;5.20;;;2.70;;
46116;SDS011;32591;48.102;11.772;2022-08-01T08:31:19;4.28;;;2.92;;
46116;SDS011;32591;48.102;11.772;2022-08-01T08:33:46;4.63;;;3.10;;
46116;SDS011;32591;48.102;11.772;2022-08-01T08:36:13;4.53;;;3.60;;
46116;SDS011;32591;48.102;11.772;2022-08-01T08:38:41;3.80;;;3.08;;
46116;SDS011;32591;48.102;11.772;2022-08-01T08:41:09;5.20;;;3.00;;
46116;SDS011;32591;48.102;11.772;2022-08-01T08:43:36;5.45;;;3.40;;
46116;SDS011;32591;48.102;11.772;2022-08-01T08:46:03;5.38;;;3.38;;
46116;SDS011;32591;48.102;11.772;2022-08-01T08:48:31;3.53;;;3.08;;
46116;SDS011;32591;48.102;11.772;2022-08-01T08:50:58;4.07;;;3.45;;
46116;SDS011;32591;48.102;11.772;2022-08-01T08:53:26;4.57;;;2.63;;
46116;SDS011;32591;48.102;11.772;2022-08-01T08:55:55;3.90;;;2.97;;
46116;SDS011;32591;48.102;11.772;2022-08-01T08:58:23;5.40;;;3.30;;
46116;SDS011;32591;48.102;11.772;2022-08-01T09:00:52;3.55;;;3.00;;
46116;SDS011;32591;48.102;11.772;2022-08-01T09:03:20;3.63;;;2.50;;
46116;SDS011;32591;48.102;11.772;2022-08-01T09:05:47;4.63;;;2.70;;
46116;SDS011;32591;48.102;11.772;2022-08-01T09:08:14;3.17;;;2.63;;
46116;SDS011;32591;48.102;11.772;2022-08-01T09:10:41;3.50;;;2.40;;
46116;SDS011;32591;48.102;11.772;2022-08-01T09:13:10;4.20;;;2.78;;
46116;SDS011;32591;48.102;11.772;2022-08-01T09:15:40;5.53;;;2.65;;
46116;SDS011;32591;48.102;11.772;2022-08-01T09:21:02;2.80;;;2.20;;
46116;SDS011;32591;48.102;11.772;2022-08-01T09:23:40;3.95;;;2.13;;
46116;SDS011;32591;48.102;11.772;2022-08-01T09:26:11;4.28;;;2.35;;
46116;SDS011;32591;48.102;11.772;2022-08-01T09:28:41;2.33;;;1.83;;
46116;SDS011;32591;48.102;11.772;2022-08-01T09:31:11;4.30;;;2.40;;
46116;SDS011;32591;48.102;11.772;2022-08-01T09:33:46;2.55;;;1.63;;
46116;SDS011;32591;48.102;11.772;2022-08-01T09:36:19;3.80;;;2.20;;
46116;SDS011;32591;48.102;11.772;2022-08-01T09:38:49;3.85;;;2.17;;
46116;SDS011;32591;48.102;11.772;2022-08-01T09:41:17;3.25;;;2.33;;
46116;SDS011;32591;48.102;11.772;2022-08-01T09:43:56;3.30;;;1.83;;
46116;SDS011;32591;48.102;11.772;2022-08-01T09:46:24;5.10;;;2.55;;
46116;SDS011;32591;48.102;11.772;2022-08-01T09:48:55;2.97;;;1.98;;
46116;SDS011;32591;48.102;11.772;2022-08-01T09:51:27;3.58;;;2.30;;
46116;SDS011;32591;48.102;11.772;2022-08-01T09:53:56;2.88;;;1.92;;
46116;SDS011;32591;48.102;11.772;2022-08-01T09:56:25;3.05;;;2.25;;
46116;SDS011;32591;48.102;11.772;2022-08-01T09:58:53;4.82;;;2.00;;
46116;SDS011;32591;48.102;11.772;2022-08-01T10:01:23;3.65;;;2.13;;
46116;SDS011;32591;48.102;11.772;2022-08-01T10:06:39;4.40;;;2.28;;
46116;SDS011;32591;48.102;11.772;2022-08-01T10:09:09;5.90;;;2.58;;
46116;SDS011;32591;48.102;11.772;2022-08-01T10:11:37;3.30;;;1.92;;
46116;SDS011;32591;48.102;11.772;2022-08-01T10:14:08;4.68;;;2.55;;
46116;SDS011;32591;48.102;11.772;2022-08-01T10:16:37;4.68;;;2.08;;
46116;SDS011;32591;48.102;11.772;2022-08-01T10:19:06;3.58;;;2.53;;
46116;SDS011;32591;48.102;11.772;2022-08-01T10:21:33;2.60;;;2.30;;
46116;SDS011;32591;48.102;11.772;2022-08-01T10:24:03;4.28;;;1.75;;
46116;SDS011;32591;48.102;11.772;2022-08-01T10:26:32;3.80;;;2.03;;
46116;SDS011;32591;48.102;11.772;2022-08-01T10:29:00;4.25;;;2.38;;
46116;SDS011;32591;48.102;11.772;2022-08-01T10:31:30;3.30;;;2.20;;
46116;SDS011;32591;48.102;11.772;2022-08-01T10:33:58;4.22;;;2.55;;
46116;SDS011;32591;48.102;11.772;2022-08-01T10:36:26;2.85;;;2.13;;
46116;SDS011;32591;48.102;11.772;2022-08-01T10:38:54;2.45;;;2.15;;
46116;SDS011;32591;48.102;11.772;2022-08-01T10:41:21;4.47;;;2.00;;
46116;SDS011;32591;48.102;11.772;2022-08-01T10:43:50;3.83;;;2.40;;
46116;SDS011;32591;48.102;11.772;2022-08-01T10:46:18;2.65;;;1.80;;
46116;SDS011;32591;48.102;11.772;2022-08-01T10:48:49;3.10;;;2.00;;
46116;SDS011;32591;48.102;11.772;2022-08-01T10:51:25;3.45;;;1.70;;
46116;SDS011;32591;48.102;11.772;2022-08-01T10:53:54;3.95;;;1.98;;
46116;SDS011;32591;48.102;11.772;2022-08-01T10:56:22;3.63;;;1.92;;
46116;SDS011;32591;48.102;11.772;2022-08-01T10:58:51;2.53;;;1.92;;
46116;SDS011;32591;48.102;11.772;2022-08-01T11:01:28;9.48;;;2.38;;
46116;SDS011;32591;48.102;11.772;2022-08-01T11:04:00;2.72;;;1.42;;
46116;SDS011;32591;48.102;11.772;2022-08-01T11:06:42;2.80;;;1.73;;
46116;SDS011;32591;48.102;11.772;2022-08-01T11:09:21;3.90;;;1.70;;
46116;SDS011;32591;48.102;11.772;2022-08-01T11:11:56;4.82;;;1.98;;
46116;SDS011;32591;48.102;11.772;2022-08-01T11:14:30;2.15;;;1.60;;
46116;SDS011;32591;48.102;11.772;2022-08-01T11:20:05;3.60;;;1.92;;
46116;SDS011;32591;48.102;11.772;2022-08-01T11:26:06;2.78;;;2.00;;
46116;SDS011;32591;48.102;11.772;2022-08-01T11:28:43;5.18;;;1.98;;
46116;SDS011;32591;48.102;11.772;2022-08-01T11:33:56;2.45;;;1.85;;
46116;SDS011;32591;48.102;11.772;2022-08-01T11:36:25;3.65;;;1.55;;
46116;SDS011;32591;48.102;11.772;2022-08-01T11:41:41;2.50;;;1.80;;
46116;SDS011;32591;48.102;11.772;2022-08-01T11:44:11;2.55;;;1.40;;
46116;SDS011;32591;48.102;11.772;2022-08-01T11:46:55;3.38;;;1.83;;
46116;SDS011;32591;48.102;11.772;2022-08-01T11:49:26;3.80;;;1.83;;
46116;SDS011;32591;48.102;11.772;2022-08-01T11:52:02;3.33;;;1.92;;
46116;SDS011;32591;48.102;11.772;2022-08-01T11:54:32;2.00;;;1.77;;
46116;SDS011;32591;48.102;11.772;2022-08-01T11:57:07;1.75;;;1.50;;
46116;SDS011;32591;48.102;11.772;2022-08-01T11:59:38;3.28;;;1.88;;
46116;SDS011;32591;48.102;11.772;2022-08-01T12:02:18;3.83;;;1.73;;
46116;SDS011;32591;48.102;11.772;2022-08-01T12:07:18;2.75;;;2.03;;
46116;SDS011;32591;48.102;11.772;2022-08-01T12:09:45;3.70;;;1.60;;
46116;SDS011;32591;48.102;11.772;2022-08-01T12:12:16;2.97;;;1.90;;
46116;SDS011;32591;48.102;11.772;2022-08-01T12:14:45;1.70;;;1.60;;
46116;SDS011;32591;48.102;11.772;2022-08-01T12:17:20;2.60;;;1.83;;
46116;SDS011;32591;48.102;11.772;2022-08-01T12:19:54;3.05;;;1.85;;
46116;SDS011;32591;48.102;11.772;2022-08-01T12:22:23;2.70;;;1.85;;
46116;SDS011;32591;48.102;11.772;2022-08-01T12:24:51;1.95;;;1.40;;
46116;SDS011;32591;48.102;11.772;2022-08-01T12:27:25;3.92;;;1.70;;
46116;SDS011;32591;48.102;11.772;2022-08-01T12:29:54;2.25;;;1.50;;
46116;SDS011;32591;48.102;11.772;2022-08-01T12:32:22;3.75;;;1.40;;
46116;SDS011;32591;48.102;11.772;2022-08-01T12:34:52;2.60;;;1.42;;
46116;SDS011;32591;48.102;11.772;2022-08-01T12:37:22;2.15;;;1.67;;
46116;SDS011;32591;48.102;11.772;2022-08-01T12:39:49;2.25;;;1.38;;
46116;SDS011;32591;48.102;11.772;2022-08-01T12:42:16;2.42;;;1.40;;
46116;SDS011;32591;48.102;11.772;2022-08-01T12:44:44;1.60;;;1.40;;
46116;SDS011;32591;48.102;11.772;2022-08-01T12:47:16;2.78;;;1.40;;
46116;SDS011;32591;48.102;11.772;2022-08-01T12:49:44;2.60;;;1.50;;
46116;SDS011;32591;48.102;11.772;2022-08-01T12:52:12;2.35;;;1.40;;
46116;SDS011;32591;48.102;11.772;2022-08-01T12:57:36;1.42;;;1.30;;
46116;SDS011;32591;48.102;11.772;2022-08-01T13:00:10;2.53;;;1.20;;
46116;SDS011;32591;48.102;11.772;2022-08-01T13:02:59;1.60;;;1.43;;
46116;SDS011;32591;48.102;11.772;2022-08-01T13:05:40;1.95;;;1.30;;
46116;SDS011;32591;48.102;11.772;2022-08-01T13:08:09;1.92;;;1.55;;
46116;SDS011;32591;48.102;11.772;2022-08-01T13:10:39;2.10;;;1.20;;
46116;SDS011;32591;48.102;11.772;2022-08-01T13:13:07;2.55;;;1.48;;
46116;SDS011;32591;48.102;11.772;2022-08-01T13:15:35;4.35;;;1.30;;
46116;SDS011;32591;48.102;11.772;2022-08-01T13:18:24;2.60;;;1.38;;
46116;SDS011;32591;48.102;11.772;2022-08-01T13:23:59;1.60;;;1.30;;
46116;SDS011;32591;48.102;11.772;2022-08-01T13:26:42;1.85;;;1.10;;
46116;SDS011;32591;48.102;11.772;2022-08-01T13:29:11;3.00;;;1.40;;
46116;SDS011;32591;48.102;11.772;2022-08-01T13:31:40;1.73;;;1.23;;
46116;SDS011;32591;48.102;11.772;2022-08-01T13:34:07;1.95;;;1.45;;
46116;SDS011;32591;48.102;11.772;2022-08-01T13:36:35;3.13;;;1.50;;
46116;SDS011;32591;48.102;11.772;2022-08-01T13:39:03;6.25;;;1.45;;
46116;SDS011;32591;48.102;11.772;2022-08-01T13:41:50;1.90;;;1.33;;
46116;SDS011;32591;48.102;11.772;2022-08-01T13:44:17;2.53;;;1.45;;
46116;SDS011;32591;48.102;11.772;2022-08-01T13:46:45;4.53;;;1.35;;
46116;SDS011;32591;48.102;11.772;2022-08-01T13:49:12;1.80;;;1.40;;
46116;SDS011;32591;48.102;11.772;2022-08-01T13:51:40;3.10;;;1.35;;
46116;SDS011;32591;48.102;11.772;2022-08-01T13:54:07;2.53;;;1.73;;
46116;SDS011;32591;48.102;11.772;2022-08-01T13:56:34;3.03;;;1.30;;
46116;SDS011;32591;48.102;11.772;2022-08-01T13:59:02;1.42;;;1.33;;
46116;SDS011;32591;48.102;11.772;2022-08-01T14:01:29;1.80;;;1.05;;
46116;SDS011;32591;48.102;11.772;2022-08-01T14:03:56;3.25;;;1.30;;
46116;SDS011;32591;48.102;11.772;2022-08-01T14:06:23;3.15;;;1.17;;
46116;SDS011;32591;48.102;11.772;2022-08-01T14:08:50;1.65;;;0.80;;
46116;SDS011;32591;48.102;11.772;2022-08-01T14:11:18;5.10;;;1.15;;
46116;SDS011;32591;48.102;11.772;2022-08-01T14:13:45;2.70;;;1.17;;
46116;SDS011;32591;48.102;11.772;2022-08-01T14:16:13;2.42;;;1.10;;
46116;SDS011;32591;48.102;11.772;2022-08-01T14:18:41;3.63;;;1.30;;
46116;SDS011;32591;48.102;11.772;2022-08-01T14:21:08;2.08;;;0.98;;
46116;SDS011;32591;48.102;11.772;2022-08-01T14:23:35;3.75;;;1.38;;
46116;SDS011;32591;48.102;11.772;2022-08-01T14:26:02;1.13;;;0.90;;
46116;SDS011;32591;48.102;11.772;2022-08-01T14:28:29;7.47;;;1.92;;
46116;SDS011;32591;48.102;11.772;2022-08-01T14:30:56;2.42;;;1.33;;
46116;SDS011;32591;48.102;11.772;2022-08-01T14:33:25;2.60;;;1.30;;
46116;SDS011;32591;48.102;11.772;2022-08-01T14:35:52;3.92;;;1.63;;
46116;SDS011;32591;48.102;11.772;2022-08-01T14:38:20;2.63;;;1.20;;
46116;SDS011;32591;48.102;11.772;2022-08-01T14:40:47;1.98;;;1.13;;
46116;SDS011;32591;48.102;11.772;2022-08-01T14:43:16;2.30;;;1.00;;
46116;SDS011;32591;48.102;11.772;2022-08-01T14:45:43;4.57;;;1.83;;
46116;SDS011;32591;48.102;11.772;2022-08-01T14:48:10;4.00;;;1.30;;
46116;SDS011;32591;48.102;11.772;2022-08-01T14:50:38;3.55;;;1.30;;
46116;SDS011;32591;48.102;11.772;2022-08-01T14:53:05;3.25;;;1.17;;
46116;SDS011;32591;48.102;11.772;2022-08-01T14:55:32;2.20;;;1.13;;
46116;SDS011;32591;48.102;11.772;2022-08-01T14:57:59;2.65;;;1.38;;
46116;SDS011;32591;48.102;11.772;2022-08-01T15:00:26;3.70;;;1.63;;
46116;SDS011;32591;48.102;11.772;2022-08-01T15:02:53;2.28;;;1.60;;
46116;SDS011;32591;48.102;11.772;2022-08-01T15:05:20;2.88;;;1.80;;
46116;SDS011;32591;48.102;11.772;2022-08-01T15:07:49;2.90;;;2.28;;
46116;SDS011;32591;48.102;11.772;2022-08-01T15:10:16;4.57;;;1.52;;
46116;SDS011;32591;48.102;11.772;2022-08-01T15:12:43;4.68;;;1.92;;